Weather History for KGWR - November, 2012

Change the Weather History Date:

Tuesday, November 6, 2012

  Actual Average (KP67) Record (KP67)
Temperature  
Mean Temperature 40 °F -  
Max Temperature 48 °F 34 °F 43 °F (1996)
Min Temperature 32 °F 21 °F 27 °F (1997)
Degree Days  
Heating Degree Days 25    
Moisture  
Dew Point 34 °F    
Average Humidity 79    
Maximum Humidity 100    
Minimum Humidity 57    
Precipitation  
Precipitation 0.00 in - - ()
Sea Level Pressure  
Sea Level Pressure 29.93 in    
Wind  
Wind Speed 17 mph (NW)    
Max Wind Speed 30 mph    
Max Gust Speed 36 mph    
Visibility 10 miles    
Events      
Averages and records for this station are not official NWS values.
T = Trace of Precipitation, MM = Missing Value Source: NWS Daily Summary

Daily Weather History Graph

Daily Weather History Graph

Search for Another Location

Airport or City:

Trip Planner

Search our weather history database for the weather conditions in past years. The results will help you decide how hot, cold, wet, or windy it might be!

Date:

Astronomy

Nov. 06, 2012 Rise Set
Actual Time 7:19 AM CST 5:08 PM CST
Civil Twilight 6:47 AM CST 5:40 PM CST
Nautical Twilight 6:11 AM CST 6:15 PM CST
Astronomical Twilight 5:36 AM CST 6:50 PM CST
Moon 11:53 PM CST (11/6) 1:09 PM CST (11/6)
Length of Visible Light 10h 52m
Length of Day
9h 48m
Waning Gibbous, 53% of the Moon is Illuminated
Nov 6
Waning Gibbous
Nov 6
Last Quarter
Nov 13
New
Nov 20
First Quarter
Nov 28
Full

Hourly Weather History & Observations

Time (CST) Temp. Windchill Dew Point Humidity Pressure Visibility Wind Dir Wind Speed Gust Speed Precip Events Conditions
12:15 AM 41.0 °F 33.9 °F 41.0 °F 100% 29.79 in 10.0 mi West 12.7 mph - 0.00 in   Mostly Cloudy
12:35 AM 41.0 °F 32.8 °F 41.0 °F 100% 29.79 in 10.0 mi West 16.1 mph 23.0 mph 0.00 in   Partly Cloudy
12:55 AM 42.8 °F 35.4 °F 42.8 °F 100% 29.79 in 10.0 mi NW 15.0 mph - 0.00 in   Scattered Clouds
1:15 AM 42.8 °F 34.8 °F 42.8 °F 100% 29.79 in 10.0 mi NW 17.3 mph - 0.00 in   Scattered Clouds
1:35 AM 42.8 °F 34.5 °F 41.0 °F 93% 29.79 in 10.0 mi NW 18.4 mph - 0.00 in   Partly Cloudy
1:55 AM 41.0 °F 33.1 °F 37.4 °F 87% 29.80 in 10.0 mi WNW 15.0 mph 19.6 mph 0.00 in   Clear
2:15 AM 39.2 °F 31.2 °F 37.4 °F 93% 29.81 in 10.0 mi West 13.8 mph - 0.00 in   Clear
2:35 AM 39.2 °F 31.2 °F 37.4 °F 93% 29.81 in 10.0 mi WNW 13.8 mph - 0.00 in   Clear
2:55 AM 39.2 °F 31.2 °F 35.6 °F 87% 29.82 in 10.0 mi WNW 13.8 mph - 0.00 in   Clear
3:15 AM 39.2 °F 29.8 °F 35.6 °F 87% 29.81 in 10.0 mi WNW 18.4 mph 24.2 mph 0.00 in   Clear
3:35 AM 39.2 °F 29.6 °F 35.6 °F 87% 29.81 in 10.0 mi WNW 19.6 mph 27.6 mph 0.00 in   Clear
3:55 AM 39.2 °F 29.3 °F 35.6 °F 87% 29.82 in 10.0 mi WNW 20.7 mph 24.2 mph 0.00 in   Clear
4:15 AM 39.2 °F 29.3 °F 33.8 °F 81% 29.82 in 10.0 mi WNW 20.7 mph 27.6 mph 0.00 in   Clear
4:35 AM 37.4 °F 26.9 °F 33.8 °F 87% 29.82 in 10.0 mi WNW 20.7 mph 27.6 mph 0.00 in   Clear
4:55 AM 37.4 °F 27.2 °F 33.8 °F 87% 29.83 in 10.0 mi WNW 19.6 mph 25.3 mph 0.00 in   Clear
5:15 AM 37.4 °F 26.9 °F 33.8 °F 87% 29.83 in 10.0 mi WNW 20.7 mph 26.5 mph 0.00 in   Scattered Clouds
5:35 AM 37.4 °F 27.5 °F 33.8 °F 87% 29.85 in 10.0 mi WNW 18.4 mph 24.2 mph 0.00 in   Overcast
5:55 AM 39.2 °F 29.6 °F 33.8 °F 81% 29.85 in 10.0 mi WNW 19.6 mph 25.3 mph 0.00 in   Overcast
6:15 AM 39.2 °F 30.5 °F 33.8 °F 81% 29.85 in 10.0 mi WNW 16.1 mph - 0.00 in   Overcast
6:35 AM 39.2 °F 29.8 °F 33.8 °F 81% 29.85 in 10.0 mi WNW 18.4 mph 23.0 mph 0.00 in   Overcast
6:55 AM 39.2 °F 29.6 °F 33.8 °F 81% 29.86 in 10.0 mi WNW 19.6 mph - 0.00 in   Overcast
7:15 AM 39.2 °F 29.3 °F 33.8 °F 81% 29.86 in 10.0 mi WNW 20.7 mph 25.3 mph 0.00 in   Overcast
7:35 AM 39.2 °F 30.5 °F 33.8 °F 81% 29.87 in 10.0 mi WNW 16.1 mph 25.3 mph 0.00 in   Mostly Cloudy
7:55 AM 39.2 °F 30.8 °F 33.8 °F 81% 29.87 in 10.0 mi WNW 15.0 mph - 0.00 in   Partly Cloudy
8:15 AM 39.2 °F 29.6 °F 33.8 °F 81% 29.88 in 10.0 mi WNW 19.6 mph 24.2 mph 0.00 in   Mostly Cloudy
8:35 AM 39.2 °F 30.5 °F 33.8 °F 81% 29.89 in 10.0 mi NW 16.1 mph 25.3 mph 0.00 in   Overcast
8:55 AM 39.2 °F 29.8 °F 35.6 °F 87% 29.89 in 10.0 mi WNW 18.4 mph 24.2 mph 0.00 in   Overcast
9:15 AM 39.2 °F 30.2 °F 35.6 °F 87% 29.90 in - WNW 17.3 mph 24.2 mph 0.00 in   Overcast
9:35 AM 41.0 °F 31.9 °F 35.6 °F 81% 29.91 in - NW 19.6 mph 27.6 mph 0.00 in   Overcast
9:55 AM 42.8 °F 33.3 °F 35.6 °F 76% 29.91 in - NW 24.2 mph 27.6 mph 0.00 in   Mostly Cloudy
10:15 AM 42.8 °F 32.3 °F 35.6 °F 76% 29.92 in - NW 29.9 mph 34.5 mph 0.00 in   Mostly Cloudy
10:35 AM 42.8 °F 33.3 °F 35.6 °F 76% 29.91 in - NW 24.2 mph 33.4 mph 0.00 in   Mostly Cloudy
10:55 AM 44.6 °F 35.5 °F 35.6 °F 71% 29.92 in - NW 25.3 mph 34.5 mph 0.00 in   Scattered Clouds
11:15 AM 44.6 °F 35.7 °F 35.6 °F 71% 29.92 in - NW 24.2 mph 35.7 mph 0.00 in   Mostly Cloudy
11:35 AM 44.6 °F 35.9 °F 35.6 °F 71% 29.93 in - NW 23.0 mph 33.4 mph 0.00 in   Mostly Cloudy
11:55 AM 44.6 °F 35.5 °F 35.6 °F 71% 29.93 in - NW 25.3 mph 35.7 mph 0.00 in   Overcast
12:15 PM 46.4 °F 37.5 °F 35.6 °F 66% 29.93 in - NW 27.6 mph 34.5 mph 0.00 in   Overcast
12:35 PM 46.4 °F 38.1 °F 33.8 °F 62% 29.93 in - NW 24.2 mph 35.7 mph 0.00 in   Mostly Cloudy
12:55 PM 46.4 °F 37.7 °F 35.6 °F 66% 29.93 in - NNW 26.5 mph 33.4 mph 0.00 in   Mostly Cloudy
1:15 PM 48.2 °F - 33.8 °F 58% 29.93 in - NW 24.2 mph 31.1 mph 0.00 in   Overcast
1:35 PM 46.4 °F 37.5 °F 32.0 °F 57% 29.94 in - NNW 27.6 mph 34.5 mph 0.00 in   Overcast
1:55 PM 46.4 °F 38.1 °F 33.8 °F 62% 29.94 in - NW 24.2 mph 31.1 mph 0.00 in   Overcast
2:15 PM 46.4 °F 37.9 °F 33.8 °F 62% 29.94 in - NNW 25.3 mph 34.5 mph 0.00 in   Overcast
2:35 PM 48.2 °F - 33.8 °F 58% 29.94 in - NW 24.2 mph 33.4 mph 0.00 in   Overcast
2:55 PM 48.2 °F - 33.8 °F 58% 29.95 in - NNW 25.3 mph 28.8 mph 0.00 in   Overcast
3:15 PM 48.2 °F - 33.8 °F 58% 29.96 in - NNW 25.3 mph 32.2 mph 0.00 in   Overcast
3:35 PM 46.4 °F 38.1 °F 33.8 °F 62% 29.96 in - NW 24.2 mph 28.8 mph 0.00 in   Mostly Cloudy
3:55 PM 46.4 °F 38.5 °F 33.8 °F 62% 29.97 in - NW 21.9 mph 28.8 mph 0.00 in   Mostly Cloudy
4:15 PM 46.4 °F 39.0 °F 33.8 °F 62% 29.98 in - NNW 19.6 mph 25.3 mph 0.00 in   Mostly Cloudy
4:35 PM 46.4 °F 39.2 °F 32.0 °F 57% 29.99 in - NW 18.4 mph 26.5 mph 0.00 in   Mostly Cloudy
4:55 PM 44.6 °F 36.9 °F 32.0 °F 61% 30.00 in - NNW 18.4 mph 23.0 mph 0.00 in   Scattered Clouds
5:15 PM 44.6 °F 37.8 °F 32.0 °F 61% 30.00 in - NNW 15.0 mph - 0.00 in   Mostly Cloudy
5:35 PM 42.8 °F 37.0 °F 32.0 °F 66% 30.01 in - NW 10.4 mph - 0.00 in   Overcast
5:55 PM 42.8 °F 38.0 °F 32.0 °F 66% 30.02 in - NNW 8.1 mph - 0.00 in   Mostly Cloudy
6:15 PM 41.0 °F 35.2 °F 33.8 °F 76% 30.03 in - NW 9.2 mph - 0.00 in   Overcast
6:35 PM 39.2 °F 32.5 °F 32.0 °F 75% 30.03 in - NW 10.4 mph - 0.00 in   Partly Cloudy
6:55 PM 37.4 °F 30.8 °F 32.0 °F 81% 30.03 in - NW 9.2 mph - 0.00 in   Clear
7:15 PM 37.4 °F 29.8 °F 32.0 °F 81% 30.04 in - NW 11.5 mph - 0.00 in   Clear
7:35 PM 37.4 °F 30.8 °F 32.0 °F 81% 30.04 in - NNW 9.2 mph - 0.00 in   Clear
7:55 PM 35.6 °F 28.6 °F 32.0 °F 87% 30.04 in - NW 9.2 mph - 0.00 in   Unknown
8:15 PM 37.4 °F 30.3 °F 33.8 °F 87% 30.04 in - NW 10.4 mph - 0.00 in   Unknown
8:35 PM 37.4 °F 30.3 °F 32.0 °F 81% 30.04 in - NW 10.4 mph - 0.00 in   Clear
8:55 PM 37.4 °F 29.8 °F 32.0 °F 81% 30.05 in - NW 11.5 mph - 0.00 in   Clear
9:15 PM 37.4 °F 31.4 °F 32.0 °F 81% 30.05 in - NW 8.1 mph - 0.00 in   Clear
9:35 PM 35.6 °F 29.2 °F 32.0 °F 87% 30.05 in - NW 8.1 mph - 0.00 in   Unknown
9:55 PM 33.8 °F 25.8 °F 32.0 °F 93% 30.05 in - West 10.4 mph - 0.00 in   Unknown
10:15 PM 32.0 °F 23.6 °F 32.0 °F 100% 30.05 in - West 10.4 mph - 0.00 in   Unknown
10:35 PM 32.0 °F 23.6 °F 32.0 °F 100% 30.05 in - WNW 10.4 mph - 0.00 in   Unknown
10:55 PM 33.8 °F 26.4 °F 32.0 °F 93% 30.05 in - WNW 9.2 mph - 0.00 in   Unknown
11:15 PM 33.8 °F 25.8 °F 32.0 °F 93% 30.05 in - WNW 10.4 mph - 0.00 in   Unknown
11:35 PM 33.8 °F 25.8 °F 32.0 °F 93% 30.05 in - WNW 10.4 mph - 0.00 in   Unknown
11:55 PM 33.8 °F 25.3 °F 32.0 °F 93% 30.06 in - WNW 11.5 mph - 0.00 in   Unknown